createdAt,value
2023-01-25T00:02:40.934Z,102129.91
2023-01-25T00:07:45.437Z,102119.88
2023-01-25T00:12:50.035Z,102129.47
2023-01-25T00:17:54.599Z,102107.00
2023-01-25T00:22:59.085Z,102098.16
2023-01-25T00:28:03.667Z,102101.69
2023-01-25T00:33:20.467Z,102100.59
2023-01-25T00:38:32.678Z,102092.72
2023-01-25T00:43:38.498Z,102106.88
2023-01-25T00:48:43.095Z,102093.97
2023-01-25T00:53:47.696Z,102086.06
2023-01-25T00:58:52.310Z,102099.28
2023-01-25T01:03:58.489Z,102079.69
2023-01-25T01:09:03.098Z,102119.13
2023-01-25T01:14:08.897Z,102063.88
2023-01-25T01:19:13.621Z,102055.31
2023-01-25T01:24:19.223Z,102065.16
2023-01-25T01:29:23.855Z,102059.56
2023-01-25T01:34:28.713Z,102054.94
2023-01-25T01:39:33.466Z,102088.41
2023-01-25T01:44:47.114Z,102067.09
2023-01-25T01:50:16.409Z,102087.16
2023-01-25T01:55:25.409Z,102067.31
2023-01-25T02:00:37.370Z,102049.16
2023-01-25T02:05:54.005Z,102036.84
2023-01-25T02:10:59.125Z,102027.75
2023-01-25T02:16:04.854Z,102037.31
2023-01-25T02:21:09.534Z,102036.78
2023-01-25T02:26:14.707Z,102037.19
2023-01-25T02:31:19.786Z,102035.88
2023-01-25T02:36:28.149Z,102015.78
2023-01-25T02:41:37.773Z,102006.75
2023-01-25T02:46:43.857Z,101974.72
2023-01-25T02:51:53.162Z,101968.19
2023-01-25T02:56:58.873Z,101954.81
2023-01-25T03:02:07.430Z,101923.50
2023-01-25T03:07:12.394Z,101909.16
2023-01-25T03:12:17.398Z,101910.84
2023-01-25T03:17:22.961Z,101877.78
2023-01-25T03:22:27.947Z,101809.00
2023-01-25T03:27:33.325Z,101815.13
2023-01-25T03:32:45.215Z,101808.31
2023-01-25T03:37:54.943Z,101793.88
2023-01-25T03:43:00.515Z,101763.22
2023-01-25T03:48:04.991Z,101750.47
2023-01-25T03:53:18.412Z,101756.41
2023-01-25T03:58:23.572Z,101718.91
2023-01-25T04:03:31.231Z,101718.06
2023-01-25T04:08:37.483Z,101699.31
2023-01-25T04:13:43.305Z,101686.53
2023-01-25T04:18:51.607Z,101693.31
2023-01-25T04:23:57.025Z,101683.84
2023-01-25T04:29:03.211Z,101671.78
2023-01-25T04:34:09.402Z,101649.50
2023-01-25T04:39:14.199Z,101650.28
2023-01-25T04:44:21.067Z,101624.69
2023-01-25T04:49:26.254Z,101598.19
2023-01-25T04:54:31.233Z,101589.66
2023-01-25T04:59:36.252Z,101580.25
2023-01-25T05:04:42.711Z,101558.94
2023-01-25T05:09:47.303Z,101537.63
2023-01-25T05:14:51.984Z,101516.31
2023-01-25T05:19:58.065Z,101525.63
2023-01-25T05:25:04.136Z,101499.06
2023-01-25T05:30:13.898Z,101481.94
2023-01-25T05:35:35.754Z,101481.03
2023-01-25T05:40:40.857Z,101475.00
2023-01-25T05:45:45.483Z,101458.69
2023-01-25T05:50:51.559Z,101442.38
2023-01-25T05:56:09.898Z,101438.91
2023-01-25T06:01:14.805Z,101426.88
2023-01-25T06:06:27.228Z,101426.00
2023-01-25T06:11:31.984Z,101414.84
2023-01-25T06:16:36.752Z,101413.91
2023-01-25T06:22:00.107Z,101410.50
2023-01-25T06:27:05.688Z,101399.31
2023-01-25T06:32:10.467Z,101397.56
2023-01-25T06:37:15.254Z,101397.50
2023-01-25T06:42:19.931Z,101405.13
2023-01-25T06:47:24.583Z,101385.44
2023-01-25T06:52:29.386Z,101432.47
2023-01-25T06:57:34.400Z,101387.91
2023-01-25T07:02:39.236Z,101412.75
2023-01-25T07:07:47.813Z,101384.50
2023-01-25T07:12:52.487Z,101380.19
2023-01-25T07:18:03.247Z,101376.81
2023-01-25T07:23:17.034Z,101374.28
2023-01-25T07:28:21.682Z,101381.16
2023-01-25T07:33:26.400Z,101376.09
2023-01-25T07:38:31.095Z,101364.19
2023-01-25T07:43:36.109Z,101389.94
2023-01-25T07:48:43.350Z,101384.00
2023-01-25T07:53:52.834Z,101400.25
2023-01-25T07:58:59.741Z,101391.72
2023-01-25T08:04:07.780Z,101401.22
2023-01-25T08:09:21.019Z,101409.03
2023-01-25T08:14:26.143Z,101404.00
2023-01-25T08:19:34.338Z,101426.28
2023-01-25T08:24:38.993Z,101404.97
2023-01-25T08:29:43.705Z,101397.38
2023-01-25T08:34:49.072Z,101402.53
2023-01-25T08:39:53.663Z,101393.19
2023-01-25T08:44:58.536Z,101397.53
2023-01-25T08:50:03.399Z,101399.31
2023-01-25T08:55:08.616Z,101390.88
2023-01-25T09:00:13.005Z,101390.84
2023-01-25T09:05:17.806Z,101389.25
2023-01-25T09:10:23.112Z,101379.88
2023-01-25T09:15:27.999Z,101388.41
2023-01-25T09:20:34.635Z,101388.47
2023-01-25T09:25:39.599Z,101393.69
2023-01-25T09:30:48.383Z,101399.72
2023-01-25T09:36:05.435Z,101418.56
2023-01-25T09:41:31.166Z,101398.97
2023-01-25T09:47:02.753Z,101397.31
2023-01-25T09:52:20.078Z,101405.03
2023-01-25T09:57:37.185Z,101395.72
2023-01-25T10:03:23.545Z,101410.22
2023-01-25T10:08:33.092Z,101423.91
2023-01-25T10:13:39.253Z,101412.00
2023-01-25T10:19:18.827Z,101422.25
2023-01-25T10:24:43.013Z,101461.47
2023-01-25T10:29:50.058Z,101439.31
2023-01-25T10:34:58.931Z,101439.34
2023-01-25T10:40:15.562Z,101440.19
2023-01-25T10:45:20.728Z,101476.84
2023-01-25T10:50:47.546Z,101460.66
2023-01-25T10:56:11.213Z,101463.22
2023-01-25T11:01:29.962Z,101459.81
2023-01-25T11:06:38.170Z,101458.97
2023-01-25T11:11:43.293Z,101464.06
2023-01-25T11:16:49.796Z,101488.78
2023-01-25T11:21:58.884Z,101475.97
2023-01-25T11:27:21.679Z,101479.41
2023-01-25T11:32:27.592Z,101523.72
2023-01-25T11:38:19.091Z,101481.16
2023-01-25T11:43:57.113Z,101485.38
2023-01-25T11:49:22.569Z,101525.38
2023-01-25T11:54:44.061Z,101492.19
2023-01-25T12:00:07.973Z,101491.31
2023-01-25T12:05:49.837Z,101555.94
2023-01-25T12:11:23.902Z,101520.16
2023-01-25T12:16:49.533Z,101520.09
2023-01-25T12:22:00.854Z,101523.47
2023-01-25T12:27:44.497Z,101528.53
2023-01-25T12:33:13.866Z,101528.50
2023-01-25T12:38:30.950Z,101546.34
2023-01-25T12:43:57.463Z,101550.59
2023-01-25T12:49:10.538Z,101563.34
2023-01-25T12:54:47.192Z,101554.84
2023-01-25T13:00:02.858Z,101556.53
2023-01-25T13:05:20.910Z,101553.94
2023-01-25T13:10:50.888Z,101550.47
2023-01-25T13:15:57.328Z,101554.63
2023-01-25T13:21:10.418Z,101562.19
2023-01-25T13:26:25.263Z,101568.03
2023-01-25T13:31:51.496Z,101568.00
2023-01-25T13:37:07.803Z,101576.47
2023-01-25T13:42:14.129Z,101573.00
2023-01-25T13:47:29.855Z,101586.53
2023-01-25T13:52:40.490Z,101587.28
2023-01-25T13:57:46.840Z,101574.53
2023-01-25T14:02:58.349Z,101590.69
2023-01-25T14:08:06.434Z,101587.22
2023-01-25T14:13:16.813Z,101565.97
2023-01-25T14:18:24.410Z,101583.78
2023-01-25T14:23:32.170Z,101566.78
2023-01-25T14:28:38.683Z,101555.78
2023-01-25T14:33:50.119Z,101560.00
2023-01-25T14:38:57.228Z,101553.16
2023-01-25T14:44:10.508Z,101552.25
2023-01-25T14:49:18.856Z,101571.69
2023-01-25T14:54:30.929Z,101572.50
2023-01-25T14:59:51.086Z,101567.41
2023-01-25T15:05:32.384Z,101565.72
2023-01-25T15:10:39.694Z,101569.06
2023-01-25T15:16:04.378Z,101563.06
2023-01-25T15:21:15.835Z,101575.72
2023-01-25T15:26:31.355Z,101582.41
2023-01-25T15:31:40.127Z,101579.81
2023-01-25T15:36:50.376Z,101606.00
2023-01-25T15:41:56.285Z,101564.41
2023-01-25T15:47:03.148Z,101577.97
2023-01-25T15:52:11.092Z,101574.44
2023-01-25T15:57:39.637Z,101578.53
2023-01-25T16:02:47.238Z,101578.44
2023-01-25T16:07:55.794Z,101574.25
2023-01-25T16:13:04.924Z,101572.50
2023-01-25T16:18:16.967Z,101556.44
2023-01-25T16:23:23.335Z,101550.50
2023-01-25T16:28:31.086Z,101543.72
2023-01-25T16:33:37.614Z,101544.44
2023-01-25T16:38:43.090Z,101557.94
2023-01-25T16:43:51.724Z,101564.66
2023-01-25T16:49:00.972Z,101570.63
2023-01-25T16:54:06.672Z,101568.91
2023-01-25T16:59:12.905Z,101580.78
2023-01-25T17:04:17.945Z,101575.72
2023-01-25T17:09:25.267Z,101576.53
2023-01-25T17:14:32.003Z,101577.31
2023-01-25T17:19:36.713Z,101578.13
2023-01-25T17:24:44.523Z,101567.97
2023-01-25T17:29:49.797Z,101579.84
2023-01-25T17:34:55.122Z,101572.09
2023-01-25T17:40:00.442Z,101572.91
2023-01-25T17:45:05.223Z,101576.22
2023-01-25T17:50:11.293Z,101637.97
2023-01-25T17:55:16.571Z,101598.19
2023-01-25T18:00:21.913Z,101604.19
2023-01-25T18:05:30.053Z,101623.81
2023-01-25T18:10:35.914Z,101609.47
2023-01-25T18:15:40.945Z,101614.59
2023-01-25T18:20:45.956Z,101622.22
2023-01-25T18:25:50.917Z,101607.03
2023-01-25T18:31:02.611Z,101603.72
2023-01-25T18:36:08.114Z,101591.00
2023-01-25T18:41:13.116Z,101584.25
2023-01-25T18:46:18.201Z,101592.75
2023-01-25T18:51:24.395Z,101601.28
2023-01-25T18:56:29.597Z,101597.06
2023-01-25T19:01:34.645Z,101594.44
2023-01-25T19:06:39.680Z,101634.22
2023-01-25T19:11:44.209Z,101615.56
2023-01-25T19:16:49.298Z,101616.34
2023-01-25T19:21:55.029Z,101634.00
2023-01-25T19:27:00.031Z,101622.97
2023-01-25T19:32:05.154Z,101617.09
2023-01-25T19:37:10.113Z,101625.44
2023-01-25T19:42:18.653Z,101631.34
2023-01-25T19:47:23.419Z,101649.91
2023-01-25T19:52:28.355Z,101671.03
2023-01-25T19:57:37.183Z,101700.69
2023-01-25T20:02:43.068Z,101649.75
2023-01-25T20:07:48.072Z,101661.63
2023-01-25T20:12:53.180Z,101724.19
2023-01-25T20:17:58.221Z,101680.06
2023-01-25T20:23:02.973Z,101696.31
2023-01-25T20:28:08.000Z,101692.06
2023-01-25T20:33:13.099Z,101692.06
2023-01-25T20:38:18.372Z,101691.19
2023-01-25T20:43:24.439Z,101690.28
2023-01-25T20:48:30.421Z,101703.78
2023-01-25T20:53:35.855Z,101708.91
2023-01-25T20:58:41.040Z,101710.69
2023-01-25T21:03:45.964Z,101762.38
2023-01-25T21:08:50.990Z,101720.16
2023-01-25T21:13:56.085Z,101735.28
2023-01-25T21:19:06.545Z,101742.91
2023-01-25T21:24:12.998Z,101758.81
2023-01-25T21:29:18.511Z,101752.94
2023-01-25T21:34:23.674Z,101773.34
2023-01-25T21:39:28.726Z,101781.88
2023-01-25T21:44:51.301Z,101807.25
2023-01-25T21:50:14.409Z,101801.25
2023-01-25T21:55:19.441Z,101808.75
2023-01-25T22:00:24.508Z,101801.09
2023-01-25T22:05:30.385Z,101819.75
2023-01-25T22:10:35.311Z,101828.28
2023-01-25T22:15:40.592Z,101841.91
2023-01-25T22:20:46.111Z,101854.59
2023-01-25T22:25:52.273Z,101857.75
2023-01-25T22:30:57.336Z,101880.41
2023-01-25T22:36:02.457Z,101884.56
2023-01-25T22:41:09.394Z,101893.72
2023-01-25T22:46:17.557Z,101919.97
2023-01-25T22:51:25.578Z,101914.97
2023-01-25T22:56:34.155Z,101921.75
2023-01-25T23:01:39.203Z,101957.28
2023-01-25T23:06:44.336Z,101968.28
2023-01-25T23:11:49.431Z,101946.13
2023-01-25T23:16:54.943Z,101936.84
2023-01-25T23:22:00.851Z,101951.25
2023-01-25T23:27:05.933Z,101963.22
